Whaleyville, Maryland
Current Conditions -  °F | °C
As of 3:53 PM on Friday 19 Dec 2014 (Local Time) from KOXB Reporting Station
Overcast Overcast  
Wind Chill: 33°   Ceiling: 3200
Heat Index: 38°   Visibility: 10mi
Dew Point: 25°   Wind: 7mph
Humidity: 60%   Direction: 330°NNW
Pressure: 30.12"   Gusts: 16mph
Location:  38.4°N, 75.3°W
Report Text: KOXB 192053Z AUTO 33006G14KT 10SM OVC032 03/M04 A3012 RMK AO2 SLP200 T00331039 53008 TSNO
Loading
Personal Weather Stations






























Interactive Weather Map New forecast layout! Learn more

10-Day Weather Forecast

Advertisements
Track Severe Weather on mobile